createdAt,value
2022-12-15T00:00:23.570Z,0.94
2022-12-15T00:03:10.358Z,0.99
2022-12-15T00:05:57.270Z,0.91
2022-12-15T00:08:43.900Z,0.90
2022-12-15T00:11:30.237Z,0.92
2022-12-15T00:14:16.843Z,0.89
2022-12-15T00:17:03.396Z,0.93
2022-12-15T00:19:50.167Z,0.98
2022-12-15T00:22:36.656Z,0.86
2022-12-15T00:25:23.643Z,0.94
2022-12-15T00:28:10.086Z,0.96
2022-12-15T00:31:02.116Z,0.98
2022-12-15T00:33:49.189Z,1.00
2022-12-15T00:36:35.715Z,0.92
2022-12-15T00:39:04.282Z,0.95
2022-12-15T00:41:32.340Z,1.00
2022-12-15T00:44:00.231Z,0.98
2022-12-15T00:46:46.878Z,0.98
2022-12-15T00:49:33.783Z,1.04
2022-12-15T00:52:20.538Z,0.99
2022-12-15T00:55:07.365Z,0.98
2022-12-15T00:57:53.973Z,0.99
2022-12-15T01:00:41.008Z,1.08
2022-12-15T01:03:31.218Z,1.08
2022-12-15T01:06:18.410Z,1.04
2022-12-15T01:09:04.624Z,0.95
2022-12-15T01:11:51.387Z,0.97
2022-12-15T01:14:38.199Z,1.01
2022-12-15T01:17:24.677Z,1.02
2022-12-15T01:20:11.853Z,0.77
2022-12-15T01:22:40.767Z,0.84
2022-12-15T01:25:10.437Z,0.89
2022-12-15T01:27:38.542Z,0.94
2022-12-15T01:30:08.366Z,1.00
2022-12-15T01:32:39.371Z,0.99
2022-12-15T01:35:10.883Z,1.06
2022-12-15T01:37:39.455Z,1.03
2022-12-15T01:40:30.259Z,1.19
2022-12-15T01:42:58.315Z,1.07
2022-12-15T01:45:29.189Z,1.07
2022-12-15T01:48:03.248Z,1.15
2022-12-15T01:50:37.674Z,1.04
2022-12-15T01:53:06.110Z,0.94
2022-12-15T01:55:34.044Z,1.20
2022-12-15T01:58:06.790Z,0.96
2022-12-15T02:00:35.358Z,1.07
2022-12-15T02:03:06.674Z,0.98
2022-12-15T02:05:35.652Z,1.04
2022-12-15T02:08:05.337Z,1.09
2022-12-15T02:11:14.466Z,1.08
2022-12-15T02:14:06.691Z,1.09
2022-12-15T02:17:29.458Z,1.07
2022-12-15T02:20:28.171Z,1.03
2022-12-15T02:23:14.230Z,1.07
2022-12-15T02:26:03.233Z,1.00
2022-12-15T02:28:55.377Z,1.03
2022-12-15T02:31:49.933Z,1.06
2022-12-15T02:34:18.350Z,1.17
2022-12-15T02:36:59.487Z,1.06
2022-12-15T02:39:27.615Z,1.09
2022-12-15T02:41:55.526Z,1.08
2022-12-15T02:44:35.605Z,1.06
2022-12-15T02:47:06.554Z,1.08
2022-12-15T02:49:49.994Z,1.06
2022-12-15T02:52:26.984Z,1.11
2022-12-15T02:55:05.395Z,1.10
2022-12-15T02:57:44.628Z,1.06
2022-12-15T03:00:15.725Z,1.02
2022-12-15T03:02:51.402Z,1.11
2022-12-15T03:05:22.698Z,1.02
2022-12-15T03:07:54.871Z,1.08
2022-12-15T03:10:25.667Z,1.10
2022-12-15T03:12:54.734Z,1.09
2022-12-15T03:15:22.633Z,1.10
2022-12-15T03:17:50.517Z,1.14
2022-12-15T03:20:18.385Z,1.17
2022-12-15T03:22:46.287Z,1.13
2022-12-15T03:25:14.443Z,1.10
2022-12-15T03:27:42.409Z,1.12
2022-12-15T03:30:10.839Z,1.12
2022-12-15T03:32:38.746Z,1.12
2022-12-15T03:35:07.477Z,1.08
2022-12-15T03:37:35.568Z,1.04
2022-12-15T03:40:03.765Z,1.02
2022-12-15T03:42:49.899Z,1.09
2022-12-15T03:45:23.332Z,1.03
2022-12-15T03:47:51.919Z,1.12
2022-12-15T03:50:22.466Z,1.03
2022-12-15T03:53:03.490Z,0.95
2022-12-15T03:55:31.442Z,1.11
2022-12-15T03:57:59.426Z,1.16
2022-12-15T04:00:27.521Z,1.04
2022-12-15T04:02:55.815Z,1.00
2022-12-15T04:05:29.549Z,1.09
2022-12-15T04:07:59.419Z,1.08
2022-12-15T04:10:33.998Z,1.07
2022-12-15T04:13:08.034Z,1.06
2022-12-15T04:15:37.786Z,1.04
2022-12-15T04:18:07.484Z,1.05
2022-12-15T04:20:35.825Z,1.01
2022-12-15T04:23:03.722Z,1.09
2022-12-15T04:25:50.298Z,1.12
2022-12-15T04:28:36.928Z,1.11
2022-12-15T04:31:29.761Z,1.09
2022-12-15T04:34:20.965Z,1.08
2022-12-15T04:37:10.651Z,1.03
2022-12-15T04:40:01.646Z,1.14
2022-12-15T04:42:51.043Z,1.05
2022-12-15T04:45:40.878Z,1.10
2022-12-15T04:48:28.221Z,1.28
2022-12-15T04:51:14.990Z,1.11
2022-12-15T04:54:04.546Z,1.04
2022-12-15T04:56:51.144Z,1.03
2022-12-15T04:59:38.077Z,1.11
2022-12-15T05:02:24.692Z,1.08
2022-12-15T05:05:12.329Z,1.12
2022-12-15T05:07:59.223Z,1.17
2022-12-15T05:10:45.637Z,1.20
2022-12-15T05:13:32.691Z,1.12
2022-12-15T05:16:19.691Z,1.16
2022-12-15T05:19:06.101Z,1.09
2022-12-15T05:21:52.706Z,1.10
2022-12-15T05:24:39.340Z,1.13
2022-12-15T05:27:26.013Z,1.12
2022-12-15T05:30:12.401Z,1.10
2022-12-15T05:32:40.544Z,1.12
2022-12-15T05:35:08.525Z,1.19
2022-12-15T05:37:36.438Z,1.20
2022-12-15T05:40:05.431Z,1.16
2022-12-15T05:42:34.364Z,1.12
2022-12-15T05:45:02.226Z,1.18
2022-12-15T05:47:31.038Z,1.14
2022-12-15T05:49:58.897Z,1.13
2022-12-15T05:52:27.097Z,0.99
2022-12-15T05:54:55.029Z,1.12
2022-12-15T05:57:22.988Z,1.14
2022-12-15T05:59:50.837Z,1.16
2022-12-15T06:02:18.842Z,1.16
2022-12-15T06:04:46.791Z,1.14
2022-12-15T06:07:14.738Z,1.11
2022-12-15T06:09:42.667Z,1.03
2022-12-15T06:12:10.556Z,1.07
2022-12-15T06:14:38.461Z,1.14
2022-12-15T06:17:06.400Z,1.14
2022-12-15T06:19:34.309Z,1.04
2022-12-15T06:22:02.343Z,1.09
2022-12-15T06:24:30.205Z,1.19
2022-12-15T06:26:58.146Z,1.09
2022-12-15T06:29:26.018Z,1.01
2022-12-15T06:31:53.950Z,1.07
2022-12-15T06:34:21.869Z,1.10
2022-12-15T06:36:50.360Z,1.16
2022-12-15T06:39:18.382Z,1.13
2022-12-15T06:41:46.670Z,1.18
2022-12-15T06:44:16.166Z,1.20
2022-12-15T06:46:45.741Z,1.10
2022-12-15T06:49:14.538Z,1.14
2022-12-15T06:51:44.043Z,1.07
2022-12-15T06:54:12.027Z,1.13
2022-12-15T06:56:39.941Z,1.11
2022-12-15T06:59:08.497Z,1.19
2022-12-15T07:01:36.612Z,1.13
2022-12-15T07:04:05.794Z,1.17
2022-12-15T07:06:38.656Z,1.14
2022-12-15T07:09:10.738Z,1.18
2022-12-15T07:11:38.859Z,1.13
2022-12-15T07:14:06.841Z,1.23
2022-12-15T07:16:34.901Z,1.20
2022-12-15T07:19:02.887Z,1.25
2022-12-15T07:21:30.967Z,1.17
2022-12-15T07:23:59.733Z,1.17
2022-12-15T07:26:28.571Z,1.14
2022-12-15T07:28:56.680Z,1.07
2022-12-15T07:31:24.860Z,1.09
2022-12-15T07:33:54.541Z,1.12
2022-12-15T07:36:22.727Z,1.21
2022-12-15T07:38:51.609Z,1.09
2022-12-15T07:41:20.638Z,1.06
2022-12-15T07:43:49.411Z,1.18
2022-12-15T07:46:18.237Z,1.25
2022-12-15T07:48:50.237Z,1.26
2022-12-15T07:51:20.620Z,1.31
2022-12-15T07:53:51.277Z,1.30
2022-12-15T07:56:20.318Z,1.31
2022-12-15T07:58:48.301Z,2.11
2022-12-15T08:01:17.004Z,2.33
2022-12-15T08:03:45.440Z,1.63
2022-12-15T08:06:14.762Z,1.55
2022-12-15T08:08:44.752Z,1.54
2022-12-15T08:11:19.592Z,1.42
2022-12-15T08:14:05.632Z,1.58
2022-12-15T08:16:36.733Z,1.48
2022-12-15T08:19:05.565Z,1.51
2022-12-15T08:21:34.044Z,1.52
2022-12-15T08:24:02.315Z,1.66
2022-12-15T08:26:31.799Z,1.55
2022-12-15T08:29:40.398Z,1.54
2022-12-15T08:31:53.039Z,1.39
2022-12-15T08:34:21.564Z,1.57
2022-12-15T08:36:49.495Z,1.54
2022-12-15T08:39:17.622Z,1.55
2022-12-15T08:41:45.533Z,1.50
2022-12-15T08:44:13.896Z,1.60
2022-12-15T08:46:42.354Z,1.55
2022-12-15T08:49:10.580Z,1.57
2022-12-15T08:51:38.466Z,1.63
2022-12-15T08:54:08.098Z,1.58
2022-12-15T08:56:36.084Z,1.54
2022-12-15T08:59:04.049Z,1.62
2022-12-15T09:01:33.079Z,1.60
2022-12-15T09:04:04.114Z,1.60
2022-12-15T09:06:34.827Z,1.60
2022-12-15T09:09:07.294Z,1.61
2022-12-15T09:11:35.485Z,1.58
2022-12-15T09:14:04.105Z,1.65
2022-12-15T09:16:32.193Z,1.64
2022-12-15T09:19:00.394Z,1.70
2022-12-15T09:21:30.271Z,1.69
2022-12-15T09:24:01.834Z,1.80
2022-12-15T09:26:33.583Z,1.76
2022-12-15T09:29:02.461Z,1.79
2022-12-15T09:31:34.055Z,1.75
2022-12-15T09:34:02.403Z,1.80
2022-12-15T09:36:32.840Z,1.81
2022-12-15T09:39:02.884Z,1.84
2022-12-15T09:41:33.668Z,1.85
2022-12-15T09:44:15.116Z,1.81
2022-12-15T09:47:23.114Z,1.77
2022-12-15T09:49:57.991Z,1.72
2022-12-15T09:52:29.517Z,1.81
2022-12-15T09:54:58.162Z,1.76
2022-12-15T09:58:23.178Z,1.90
2022-12-15T10:01:01.191Z,1.85
2022-12-15T10:03:55.134Z,1.86
2022-12-15T10:06:33.936Z,1.93
2022-12-15T10:09:22.887Z,1.69
2022-12-15T10:11:57.653Z,1.69
2022-12-15T10:14:37.705Z,1.76
2022-12-15T10:17:21.450Z,1.71
2022-12-15T10:19:56.359Z,1.87
2022-12-15T10:22:26.557Z,1.96
2022-12-15T10:25:11.152Z,2.03
2022-12-15T10:27:49.309Z,2.04
2022-12-15T10:30:17.602Z,2.05
2022-12-15T10:32:57.573Z,2.17
2022-12-15T10:35:30.264Z,2.07
2022-12-15T10:38:00.231Z,2.11
2022-12-15T10:40:51.996Z,2.10
2022-12-15T10:43:35.534Z,2.15
2022-12-15T10:46:07.452Z,2.22
2022-12-15T10:48:36.616Z,2.16
2022-12-15T10:51:21.511Z,2.26
2022-12-15T10:54:06.678Z,2.29
2022-12-15T10:56:35.027Z,2.34
2022-12-15T10:59:23.028Z,2.38
2022-12-15T11:01:52.100Z,2.31
2022-12-15T11:04:26.198Z,2.42
2022-12-15T11:07:02.698Z,2.44
2022-12-15T11:09:37.121Z,2.20
2022-12-15T11:12:38.873Z,2.30
2022-12-15T11:15:21.763Z,2.45
2022-12-15T11:18:01.775Z,2.40
2022-12-15T11:20:40.548Z,2.50
2022-12-15T11:23:34.506Z,2.52
2022-12-15T11:26:22.874Z,2.61
2022-12-15T11:28:58.226Z,2.61
2022-12-15T11:31:37.914Z,2.69
2022-12-15T11:34:14.821Z,2.74
2022-12-15T11:36:55.171Z,2.70
2022-12-15T11:39:29.114Z,2.86
2022-12-15T11:42:10.912Z,2.80
2022-12-15T11:44:53.007Z,2.78
2022-12-15T11:47:40.717Z,2.70
2022-12-15T11:50:31.327Z,2.67
2022-12-15T11:53:19.693Z,2.68
2022-12-15T11:56:07.093Z,2.71
2022-12-15T11:58:59.730Z,2.75
2022-12-15T12:04:39.996Z,2.70
2022-12-15T12:07:22.498Z,2.69
2022-12-15T12:10:03.657Z,2.72
2022-12-15T12:12:45.679Z,2.76
2022-12-15T12:15:37.596Z,2.55
2022-12-15T12:18:33.723Z,2.69
2022-12-15T12:21:07.933Z,2.57
2022-12-15T12:23:46.945Z,2.66
2022-12-15T12:26:25.025Z,2.66
2022-12-15T12:29:00.698Z,2.69
2022-12-15T12:32:04.054Z,2.73
2022-12-15T12:34:51.090Z,2.75
2022-12-15T12:37:40.578Z,2.67
2022-12-15T12:40:21.558Z,2.57
2022-12-15T12:42:59.039Z,2.68
2022-12-15T12:45:52.293Z,2.69
2022-12-15T12:48:35.409Z,2.42
2022-12-15T12:51:13.770Z,2.59
2022-12-15T12:53:41.991Z,2.61
2022-12-15T12:56:40.726Z,2.60
2022-12-15T12:59:30.379Z,2.63
2022-12-15T13:02:14.457Z,2.60
2022-12-15T13:04:44.419Z,2.74
2022-12-15T13:07:29.337Z,2.75
2022-12-15T13:10:09.189Z,2.65
2022-12-15T13:12:54.524Z,2.54
2022-12-15T13:15:39.300Z,2.56
2022-12-15T13:18:19.690Z,2.61
2022-12-15T13:20:50.725Z,2.42
2022-12-15T13:23:21.904Z,2.42
2022-12-15T13:25:55.987Z,2.39
2022-12-15T13:28:49.154Z,2.47
2022-12-15T13:31:21.750Z,2.45
2022-12-15T13:33:50.114Z,2.56
2022-12-15T13:36:37.116Z,2.54
2022-12-15T13:39:11.187Z,2.34
2022-12-15T13:42:31.737Z,2.30
2022-12-15T13:44:53.342Z,2.38
2022-12-15T13:47:31.273Z,2.21
2022-12-15T13:50:12.829Z,2.32
2022-12-15T13:53:18.006Z,2.29
2022-12-15T13:55:52.477Z,2.50
2022-12-15T13:58:22.045Z,2.35
2022-12-15T14:00:56.233Z,2.34
2022-12-15T14:03:24.900Z,2.35
2022-12-15T14:05:55.875Z,2.34
2022-12-15T14:08:27.112Z,2.35
2022-12-15T14:10:57.807Z,2.43
2022-12-15T14:13:30.174Z,2.33
2022-12-15T14:16:19.093Z,2.32
2022-12-15T14:19:03.899Z,2.22
2022-12-15T14:21:31.820Z,2.21
2022-12-15T14:24:36.922Z,2.04
2022-12-15T14:26:48.970Z,2.18
2022-12-15T14:29:19.324Z,2.25
2022-12-15T14:31:51.203Z,2.25
2022-12-15T14:34:23.988Z,2.28
2022-12-15T14:36:55.862Z,2.22
2022-12-15T14:39:34.608Z,2.20
2022-12-15T14:42:03.474Z,2.31
2022-12-15T14:47:30.897Z,2.17
2022-12-15T14:50:01.737Z,2.10
2022-12-15T14:52:37.307Z,2.08
2022-12-15T14:55:20.845Z,2.18
2022-12-15T14:57:53.474Z,2.21
2022-12-15T15:00:32.627Z,2.22
2022-12-15T15:03:04.869Z,2.74
2022-12-15T15:03:27.545Z,2.18
2022-12-15T15:05:59.486Z,2.17
2022-12-15T15:08:37.318Z,2.11
2022-12-15T15:11:23.172Z,2.15
2022-12-15T15:13:59.036Z,2.11
2022-12-15T15:16:27.754Z,2.20
2022-12-15T15:18:56.517Z,2.09
2022-12-15T15:21:27.610Z,2.01
2022-12-15T15:24:02.591Z,2.13
2022-12-15T15:26:31.475Z,2.03
2022-12-15T15:28:59.524Z,2.17
2022-12-15T15:31:41.409Z,2.24
2022-12-15T15:34:09.906Z,2.07
2022-12-15T15:36:39.018Z,2.25
2022-12-15T15:39:15.072Z,2.19
2022-12-15T15:41:43.048Z,2.25
2022-12-15T15:44:14.752Z,2.19
2022-12-15T15:46:51.671Z,2.27
2022-12-15T15:49:21.879Z,2.24
2022-12-15T15:51:49.759Z,2.20
2022-12-15T15:54:23.205Z,2.13
2022-12-15T15:56:51.665Z,2.06
2022-12-15T15:59:21.181Z,2.28
2022-12-15T16:01:57.705Z,2.22
2022-12-15T16:04:26.354Z,2.19
2022-12-15T16:06:54.597Z,2.13
2022-12-15T16:09:24.847Z,2.18
2022-12-15T16:11:54.444Z,2.22
2022-12-15T16:14:22.314Z,2.27
2022-12-15T16:16:50.220Z,2.07
2022-12-15T16:19:18.141Z,2.14
2022-12-15T16:21:50.780Z,2.07
2022-12-15T16:24:19.529Z,2.16
2022-12-15T16:26:50.031Z,2.24
2022-12-15T16:29:20.734Z,2.11
2022-12-15T16:31:48.901Z,2.17
2022-12-15T16:34:19.133Z,2.34
2022-12-15T16:36:48.395Z,2.33
2022-12-15T16:39:28.966Z,2.21
2022-12-15T16:41:57.285Z,2.29
2022-12-15T16:44:27.353Z,2.22
2022-12-15T16:46:55.450Z,2.06
2022-12-15T16:49:23.564Z,2.35
2022-12-15T16:51:53.792Z,2.25
2022-12-15T16:54:27.224Z,2.20
2022-12-15T16:56:57.581Z,2.20
2022-12-15T16:59:35.401Z,2.30
2022-12-15T17:02:27.630Z,2.24
2022-12-15T17:04:55.956Z,2.12
2022-12-15T17:07:27.016Z,2.03
2022-12-15T17:09:55.886Z,2.04
2022-12-15T17:12:23.781Z,2.08
2022-12-15T17:14:51.699Z,2.05
2022-12-15T17:17:20.057Z,2.14
2022-12-15T17:20:27.532Z,2.05
2022-12-15T17:22:38.321Z,2.11
2022-12-15T17:25:13.581Z,2.07
2022-12-15T17:27:41.545Z,2.10
2022-12-15T17:30:14.442Z,1.92
2022-12-15T17:32:44.154Z,2.11
2022-12-15T17:35:12.504Z,2.14
2022-12-15T17:37:41.026Z,2.19
2022-12-15T17:40:23.794Z,2.14
2022-12-15T17:42:51.725Z,2.17
2022-12-15T17:45:24.452Z,2.17
2022-12-15T17:47:52.875Z,2.06
2022-12-15T17:50:20.805Z,2.07
2022-12-15T17:52:48.843Z,2.08
2022-12-15T17:55:27.909Z,2.15
2022-12-15T17:57:59.177Z,2.14
2022-12-15T18:00:29.828Z,2.15
2022-12-15T18:03:00.307Z,2.08
2022-12-15T18:05:30.261Z,2.17
2022-12-15T18:08:01.655Z,2.09
2022-12-15T18:10:38.446Z,2.13
2022-12-15T18:13:30.324Z,2.05
2022-12-15T18:16:04.123Z,2.13
2022-12-15T18:18:32.161Z,2.17
2022-12-15T18:21:03.449Z,2.03
2022-12-15T18:23:32.478Z,2.13
2022-12-15T18:26:03.089Z,2.06
2022-12-15T18:28:34.003Z,2.20
2022-12-15T18:31:21.824Z,2.24
2022-12-15T18:33:50.275Z,2.22
2022-12-15T18:36:20.024Z,2.20
2022-12-15T18:38:48.005Z,2.17
2022-12-15T18:41:18.092Z,2.13
2022-12-15T18:43:46.301Z,2.08
2022-12-15T18:46:20.336Z,2.14
2022-12-15T18:48:48.276Z,2.24
2022-12-15T18:51:21.686Z,2.26
2022-12-15T18:53:49.816Z,2.23
2022-12-15T18:56:21.483Z,2.24
2022-12-15T18:58:49.643Z,2.19
2022-12-15T19:01:17.738Z,2.15
2022-12-15T19:03:45.680Z,2.22
2022-12-15T19:06:23.954Z,2.29
2022-12-15T19:08:53.701Z,2.24
2022-12-15T19:11:31.244Z,2.23
2022-12-15T19:14:00.658Z,2.29
2022-12-15T19:16:52.359Z,2.23
2022-12-15T19:19:38.860Z,2.22
2022-12-15T19:22:30.014Z,2.19
2022-12-15T19:24:59.073Z,2.10
2022-12-15T19:27:27.145Z,2.18
2022-12-15T19:29:55.821Z,2.24
2022-12-15T19:32:24.161Z,2.18
2022-12-15T19:34:53.232Z,2.17
2022-12-15T19:37:27.583Z,2.18
2022-12-15T19:39:58.093Z,2.15
2022-12-15T19:42:31.605Z,2.15
2022-12-15T19:45:01.554Z,2.30
2022-12-15T19:47:29.885Z,2.32
2022-12-15T19:49:57.791Z,2.37
2022-12-15T19:52:26.858Z,2.28
2022-12-15T19:54:54.828Z,2.31
2022-12-15T19:57:22.690Z,2.24
2022-12-15T19:59:51.069Z,2.25
2022-12-15T20:02:21.088Z,2.31
2022-12-15T20:04:49.123Z,2.31
2022-12-15T20:07:33.369Z,2.29
2022-12-15T20:10:03.015Z,2.33
2022-12-15T20:12:31.736Z,2.32
2022-12-15T20:14:59.685Z,2.41
2022-12-15T20:17:28.150Z,2.30
2022-12-15T20:19:55.985Z,2.27
2022-12-15T20:22:24.456Z,2.35
2022-12-15T20:24:52.305Z,2.38
2022-12-15T20:27:20.259Z,2.35
2022-12-15T20:29:48.187Z,2.36
2022-12-15T20:32:19.842Z,2.35
2022-12-15T20:34:48.635Z,2.37
2022-12-15T20:37:19.134Z,2.41
2022-12-15T20:39:49.444Z,2.40
2022-12-15T20:42:22.005Z,2.45
2022-12-15T20:44:50.070Z,2.48
2022-12-15T20:47:23.009Z,2.45
2022-12-15T20:49:52.869Z,2.43
2022-12-15T20:52:23.509Z,2.47
2022-12-15T20:54:53.485Z,2.41
2022-12-15T20:57:21.499Z,2.39
2022-12-15T20:59:49.482Z,2.36
2022-12-15T21:02:21.540Z,2.41
2022-12-15T21:04:50.769Z,2.27
2022-12-15T21:07:18.900Z,2.28
2022-12-15T21:09:46.841Z,2.35
2022-12-15T21:12:27.542Z,2.46
2022-12-15T21:14:55.438Z,2.26
2022-12-15T21:17:25.795Z,2.43
2022-12-15T21:19:54.869Z,2.42
2022-12-15T21:22:26.587Z,2.34
2022-12-15T21:24:57.391Z,2.48
2022-12-15T21:27:25.352Z,2.43
2022-12-15T21:29:53.399Z,2.53
2022-12-15T21:32:21.489Z,2.58
2022-12-15T21:34:50.044Z,2.39
2022-12-15T21:37:27.272Z,2.51
2022-12-15T21:39:56.376Z,2.45
2022-12-15T21:42:24.705Z,2.42
2022-12-15T21:44:53.018Z,2.56
2022-12-15T21:47:20.843Z,2.59
2022-12-15T21:49:48.790Z,2.49
2022-12-15T21:52:17.509Z,2.51
2022-12-15T21:54:45.465Z,2.47
2022-12-15T21:57:13.817Z,2.49
2022-12-15T21:59:42.490Z,2.43
2022-12-15T22:02:26.937Z,2.45
2022-12-15T22:04:55.304Z,2.47
2022-12-15T22:07:23.419Z,2.41
2022-12-15T22:09:51.813Z,2.46
2022-12-15T22:12:21.947Z,2.50
2022-12-15T22:14:49.881Z,2.50
2022-12-15T22:17:21.893Z,2.61
2022-12-15T22:19:49.796Z,2.59
2022-12-15T22:22:36.049Z,2.44
2022-12-15T22:25:04.306Z,2.44
2022-12-15T22:27:33.476Z,2.42
2022-12-15T22:30:01.355Z,2.55
2022-12-15T22:32:30.377Z,2.48
2022-12-15T22:34:58.279Z,2.50
2022-12-15T22:37:26.486Z,2.45
2022-12-15T22:39:54.418Z,2.35
2022-12-15T22:42:22.627Z,2.35
2022-12-15T22:44:51.230Z,2.40
2022-12-15T22:47:19.763Z,2.16
2022-12-15T22:49:47.722Z,2.26
2022-12-15T22:52:18.977Z,2.41
2022-12-15T22:54:47.978Z,2.39
2022-12-15T22:57:22.467Z,2.41
2022-12-15T23:00:00.785Z,2.52
2022-12-15T23:02:33.385Z,2.55
2022-12-15T23:05:02.094Z,2.40
2022-12-15T23:07:30.345Z,2.32
2022-12-15T23:10:17.054Z,2.51
2022-12-15T23:12:44.984Z,2.39
2022-12-15T23:15:31.687Z,2.43
2022-12-15T23:17:59.629Z,2.44
2022-12-15T23:20:27.500Z,2.36
2022-12-15T23:22:55.423Z,2.38
2022-12-15T23:25:23.312Z,2.41
2022-12-15T23:27:51.574Z,2.30
2022-12-15T23:30:20.054Z,2.25
2022-12-15T23:32:48.177Z,2.32
2022-12-15T23:35:16.370Z,2.28
2022-12-15T23:37:44.460Z,2.19
2022-12-15T23:40:13.357Z,2.22
2022-12-15T23:42:41.292Z,2.22
2022-12-15T23:45:09.603Z,2.30
2022-12-15T23:47:37.570Z,2.28
2022-12-15T23:50:05.951Z,2.37
2022-12-15T23:52:34.216Z,2.23
2022-12-15T23:55:02.421Z,2.15
2022-12-15T23:57:30.449Z,2.26
2022-12-15T23:59:58.382Z,2.24
